createdAt,value
2019-01-30T00:00:36.712Z,73.53
2019-01-30T00:03:04.016Z,73.74
2019-01-30T00:05:31.045Z,73.80
2019-01-30T00:07:58.099Z,73.71
2019-01-30T00:10:25.154Z,73.52
2019-01-30T00:12:52.195Z,73.42
2019-01-30T00:15:19.358Z,73.51
2019-01-30T00:17:47.475Z,73.42
2019-01-30T00:20:14.541Z,73.36
2019-01-30T00:22:41.602Z,73.25
2019-01-30T00:25:08.752Z,73.27
2019-01-30T00:27:35.790Z,73.22
2019-01-30T00:30:05.089Z,73.11
2019-01-30T00:32:32.131Z,73.10
2019-01-30T00:34:59.194Z,73.26
2019-01-30T00:37:26.252Z,73.36
2019-01-30T00:39:53.322Z,73.01
2019-01-30T00:42:20.371Z,73.06
2019-01-30T00:44:47.425Z,73.00
2019-01-30T00:47:15.877Z,72.96
2019-01-30T00:49:43.217Z,72.77
2019-01-30T00:52:10.273Z,72.48
2019-01-30T00:54:37.345Z,72.29
2019-01-30T00:57:04.402Z,72.25
2019-01-30T00:59:31.459Z,72.47
2019-01-30T01:01:58.513Z,72.53
2019-01-30T01:04:25.585Z,72.81
2019-01-30T01:06:52.655Z,72.74
2019-01-30T01:09:19.732Z,72.58
2019-01-30T01:11:46.793Z,72.44
2019-01-30T01:14:13.839Z,72.09
2019-01-30T01:16:40.883Z,71.84
2019-01-30T01:19:07.965Z,71.88
2019-01-30T01:21:35.006Z,71.72
2019-01-30T01:24:02.081Z,71.56
2019-01-30T01:26:29.106Z,71.47
2019-01-30T01:28:56.153Z,71.31
2019-01-30T01:31:23.185Z,71.44
2019-01-30T01:33:50.232Z,71.46
2019-01-30T01:36:17.287Z,71.49
2019-01-30T01:38:44.338Z,71.49
2019-01-30T01:41:11.379Z,71.33
2019-01-30T01:43:38.413Z,71.31
2019-01-30T01:46:05.479Z,71.50
2019-01-30T01:48:32.535Z,71.43
2019-01-30T01:50:59.589Z,71.30
2019-01-30T01:53:26.633Z,71.08
2019-01-30T01:55:53.690Z,70.85
2019-01-30T01:58:20.739Z,70.48
2019-01-30T02:00:47.798Z,70.52
2019-01-30T02:03:14.877Z,70.50
2019-01-30T02:05:41.926Z,70.52
2019-01-30T02:08:08.992Z,70.68
2019-01-30T02:10:36.017Z,70.63
2019-01-30T02:13:03.192Z,70.61
2019-01-30T02:15:30.260Z,70.57
2019-01-30T02:17:57.309Z,70.69
2019-01-30T02:20:27.103Z,70.56
2019-01-30T02:22:54.136Z,70.44
2019-01-30T02:25:21.186Z,70.66
2019-01-30T02:27:48.249Z,70.72
2019-01-30T02:30:17.770Z,70.67
2019-01-30T02:32:44.810Z,70.67
2019-01-30T02:35:11.974Z,70.29
2019-01-30T02:37:39.032Z,70.38
2019-01-30T02:40:07.579Z,70.48
2019-01-30T02:42:34.620Z,70.40
2019-01-30T02:45:01.662Z,70.33
2019-01-30T02:47:28.723Z,70.44
2019-01-30T02:49:55.790Z,70.36
2019-01-30T02:52:22.836Z,70.30
2019-01-30T02:54:49.872Z,70.24
2019-01-30T02:57:16.923Z,70.34
2019-01-30T02:59:43.967Z,70.26
2019-01-30T03:02:17.933Z,70.10
2019-01-30T03:04:45.009Z,69.95
2019-01-30T03:07:12.055Z,69.78
2019-01-30T03:09:39.091Z,69.81
2019-01-30T03:12:06.158Z,69.78
2019-01-30T03:14:33.203Z,69.90
2019-01-30T03:17:00.233Z,70.06
2019-01-30T03:19:27.270Z,70.21
2019-01-30T03:21:54.348Z,70.34
2019-01-30T03:24:21.391Z,70.28
2019-01-30T03:26:48.440Z,70.00
2019-01-30T03:29:15.510Z,69.77
2019-01-30T03:31:42.547Z,69.66
2019-01-30T03:34:09.620Z,69.55
2019-01-30T03:36:36.699Z,69.72
2019-01-30T03:39:06.466Z,69.38
2019-01-30T03:41:33.501Z,69.52
2019-01-30T03:44:00.547Z,70.13
2019-01-30T03:46:27.572Z,70.60
2019-01-30T03:48:54.632Z,70.77
2019-01-30T03:51:21.653Z,70.77
2019-01-30T03:53:48.693Z,69.93
2019-01-30T03:56:15.753Z,70.40
2019-01-30T03:58:42.801Z,70.47
2019-01-30T04:01:09.853Z,70.79
2019-01-30T04:03:36.891Z,71.05
2019-01-30T04:06:03.991Z,71.16
2019-01-30T04:08:31.048Z,70.96
2019-01-30T04:10:58.103Z,71.08
2019-01-30T04:13:25.144Z,70.84
2019-01-30T04:15:52.206Z,70.74
2019-01-30T04:18:19.244Z,70.47
2019-01-30T04:20:46.310Z,70.56
2019-01-30T04:23:14.558Z,70.59
2019-01-30T04:25:41.615Z,70.58
2019-01-30T04:28:08.692Z,70.51
2019-01-30T04:30:35.737Z,70.48
2019-01-30T04:33:02.804Z,70.51
2019-01-30T04:35:29.860Z,70.36
2019-01-30T04:37:56.890Z,70.26
2019-01-30T04:40:23.948Z,70.10
2019-01-30T04:42:51.006Z,69.99
2019-01-30T04:45:20.064Z,70.33
2019-01-30T04:47:47.193Z,70.29
2019-01-30T04:50:14.254Z,69.90
2019-01-30T04:52:41.295Z,69.95
2019-01-30T04:55:08.597Z,69.94
2019-01-30T04:57:35.746Z,69.95
2019-01-30T05:03:05.004Z,69.97
2019-01-30T05:05:32.136Z,69.92
2019-01-30T05:07:59.189Z,69.57
2019-01-30T05:10:26.261Z,69.59
2019-01-30T05:12:53.361Z,69.57
2019-01-30T05:15:20.429Z,69.58
2019-01-30T05:17:47.490Z,69.44
2019-01-30T05:20:15.919Z,69.38
2019-01-30T05:22:43.069Z,69.25
2019-01-30T05:25:10.254Z,69.48
2019-01-30T05:27:37.279Z,69.33
2019-01-30T05:30:08.323Z,69.10
2019-01-30T05:32:35.375Z,69.14
2019-01-30T05:35:02.401Z,69.22
2019-01-30T05:37:29.469Z,68.99
2019-01-30T05:39:56.515Z,68.83
2019-01-30T05:42:23.577Z,69.22
2019-01-30T05:44:50.620Z,69.25
2019-01-30T05:47:17.663Z,69.23
2019-01-30T05:49:44.742Z,69.19
2019-01-30T05:52:11.821Z,69.19
2019-01-30T05:54:38.887Z,69.03
2019-01-30T05:57:05.955Z,69.02
2019-01-30T05:59:33.019Z,69.03
2019-01-30T06:02:00.081Z,69.04
2019-01-30T06:04:27.129Z,69.21
2019-01-30T06:06:54.215Z,69.08
2019-01-30T06:09:21.252Z,69.29
2019-01-30T06:11:48.309Z,70.70
2019-01-30T06:14:15.344Z,74.76
2019-01-30T06:16:42.518Z,76.55
2019-01-30T06:19:09.552Z,75.76
2019-01-30T06:21:36.607Z,75.56
2019-01-30T06:24:03.686Z,70.83
2019-01-30T06:26:30.747Z,72.68
2019-01-30T06:28:57.793Z,69.19
2019-01-30T06:31:27.055Z,68.53
2019-01-30T06:33:59.908Z,64.57
2019-01-30T06:36:26.980Z,63.35
2019-01-30T06:38:54.040Z,64.71
2019-01-30T06:41:21.082Z,63.56
2019-01-30T06:43:48.113Z,60.59
2019-01-30T06:46:15.258Z,61.02
2019-01-30T06:48:42.315Z,61.61
2019-01-30T06:51:09.341Z,62.10
2019-01-30T06:53:36.389Z,62.16
2019-01-30T06:56:03.464Z,62.74
2019-01-30T06:58:30.508Z,64.12
2019-01-30T07:00:57.576Z,64.02
2019-01-30T07:03:24.620Z,64.55
2019-01-30T07:05:51.676Z,65.80
2019-01-30T07:08:18.713Z,66.19
2019-01-30T07:10:45.747Z,66.21
2019-01-30T07:13:12.788Z,66.05
2019-01-30T07:15:39.837Z,66.15
2019-01-30T07:18:06.872Z,66.57
2019-01-30T07:20:33.908Z,66.59
2019-01-30T07:23:00.978Z,66.30
2019-01-30T07:25:28.012Z,66.74
2019-01-30T07:27:55.042Z,67.12
2019-01-30T07:30:29.822Z,67.21
2019-01-30T07:32:56.869Z,67.28
2019-01-30T07:35:23.946Z,67.22
2019-01-30T07:37:50.969Z,67.24
2019-01-30T07:40:18.118Z,67.36
2019-01-30T07:42:45.182Z,67.28
2019-01-30T07:45:13.285Z,67.38
2019-01-30T07:47:40.347Z,67.55
2019-01-30T07:50:07.893Z,67.46
2019-01-30T07:52:34.959Z,67.35
2019-01-30T07:55:02.006Z,67.29
2019-01-30T07:57:29.076Z,67.22
2019-01-30T07:59:56.133Z,66.25
2019-01-30T08:02:23.197Z,65.55
2019-01-30T08:04:50.233Z,66.30
2019-01-30T08:07:17.303Z,66.90
2019-01-30T08:09:44.342Z,67.03
2019-01-30T08:12:12.628Z,67.39
2019-01-30T08:14:39.850Z,67.33
2019-01-30T08:17:06.907Z,67.60
2019-01-30T08:19:33.937Z,67.68
2019-01-30T08:22:00.995Z,67.36
2019-01-30T08:24:28.196Z,67.21
2019-01-30T08:26:55.459Z,67.04
2019-01-30T08:29:22.670Z,66.96
2019-01-30T08:31:50.163Z,66.99
2019-01-30T08:34:17.243Z,67.14
2019-01-30T08:36:44.286Z,66.79
2019-01-30T08:39:11.367Z,66.78
2019-01-30T08:41:38.418Z,67.20
2019-01-30T08:44:05.518Z,66.39
2019-01-30T08:46:32.560Z,65.20
2019-01-30T08:48:59.687Z,64.36
2019-01-30T08:51:26.722Z,64.04
2019-01-30T08:53:53.769Z,63.92
2019-01-30T08:56:20.836Z,63.49
2019-01-30T08:58:47.879Z,61.98
2019-01-30T09:01:15.033Z,62.53
2019-01-30T09:03:42.061Z,62.50
2019-01-30T09:06:09.093Z,62.82
2019-01-30T09:08:36.236Z,62.87
2019-01-30T09:11:03.396Z,62.84
2019-01-30T09:13:30.438Z,62.70
2019-01-30T09:15:57.576Z,62.29
2019-01-30T09:18:24.620Z,62.12
2019-01-30T09:20:51.688Z,61.45
2019-01-30T09:23:18.733Z,61.22
2019-01-30T09:25:45.766Z,61.56
2019-01-30T09:28:12.808Z,61.47
2019-01-30T09:30:39.851Z,61.16
2019-01-30T09:33:09.159Z,61.11
2019-01-30T09:35:36.312Z,61.13
2019-01-30T09:38:03.385Z,61.35
2019-01-30T09:40:30.430Z,61.45
2019-01-30T09:42:57.505Z,61.50
2019-01-30T09:45:24.693Z,60.38
2019-01-30T09:47:51.764Z,59.48
2019-01-30T09:50:19.256Z,58.92
2019-01-30T09:52:46.344Z,58.98
2019-01-30T09:55:13.615Z,59.00
2019-01-30T09:57:40.687Z,58.82
2019-01-30T10:00:12.111Z,58.11
2019-01-30T10:02:39.142Z,57.36
2019-01-30T10:05:07.998Z,58.18
2019-01-30T10:07:35.064Z,57.90
2019-01-30T10:13:10.280Z,58.07
2019-01-30T10:15:39.403Z,57.98
2019-01-30T10:18:06.754Z,57.84
2019-01-30T10:20:34.487Z,58.36
2019-01-30T10:23:01.563Z,57.49
2019-01-30T10:25:28.608Z,57.20
2019-01-30T10:27:55.652Z,56.74
2019-01-30T10:30:27.621Z,57.39
2019-01-30T10:32:54.688Z,57.20
2019-01-30T10:35:21.734Z,56.42
2019-01-30T10:37:48.780Z,56.50
2019-01-30T10:40:17.009Z,56.77
2019-01-30T10:42:44.051Z,55.88
2019-01-30T10:45:11.341Z,55.45
2019-01-30T10:47:38.385Z,55.50
2019-01-30T10:50:06.784Z,55.16
2019-01-30T10:52:33.820Z,55.30
2019-01-30T10:55:00.877Z,55.05
2019-01-30T10:57:27.983Z,54.38
2019-01-30T10:59:55.076Z,54.08
2019-01-30T11:02:22.271Z,54.08
2019-01-30T11:04:49.340Z,54.22
2019-01-30T11:07:16.406Z,54.24
2019-01-30T11:09:43.514Z,53.46
2019-01-30T11:12:10.572Z,52.65
2019-01-30T11:14:37.920Z,52.79
2019-01-30T11:17:05.000Z,52.21
2019-01-30T11:19:32.080Z,52.77
2019-01-30T11:21:59.143Z,52.14
2019-01-30T11:24:26.193Z,52.33
2019-01-30T11:26:53.254Z,52.53
2019-01-30T11:29:20.304Z,52.62
2019-01-30T11:31:47.367Z,52.05
2019-01-30T11:34:14.405Z,51.42
2019-01-30T11:36:41.464Z,51.53
2019-01-30T11:39:08.521Z,51.68
2019-01-30T11:41:35.618Z,50.67
2019-01-30T11:44:02.699Z,51.34
2019-01-30T11:46:29.753Z,51.67
2019-01-30T11:48:56.925Z,51.93
2019-01-30T11:51:23.971Z,52.27
2019-01-30T11:53:51.028Z,52.39
2019-01-30T11:56:18.057Z,52.36
2019-01-30T11:58:45.143Z,52.15
2019-01-30T12:01:12.211Z,51.77
2019-01-30T12:03:39.257Z,51.93
2019-01-30T12:06:06.336Z,51.69
2019-01-30T12:08:33.377Z,51.17
2019-01-30T12:11:00.429Z,51.14
2019-01-30T12:13:27.605Z,50.88
2019-01-30T12:15:54.693Z,50.82
2019-01-30T12:18:21.736Z,51.21
2019-01-30T12:20:48.797Z,50.70
2019-01-30T12:23:15.889Z,50.30
2019-01-30T12:25:42.988Z,49.87
2019-01-30T12:28:10.030Z,50.35
2019-01-30T12:30:37.093Z,50.96
2019-01-30T12:33:04.168Z,51.46
2019-01-30T12:35:31.240Z,51.28
2019-01-30T12:37:58.316Z,49.86
2019-01-30T12:40:25.402Z,49.79
2019-01-30T12:42:52.593Z,49.68
2019-01-30T12:45:27.794Z,50.16
2019-01-30T12:47:55.062Z,50.21
2019-01-30T12:50:22.205Z,49.39
2019-01-30T12:52:49.391Z,49.34
2019-01-30T12:55:16.449Z,49.47
2019-01-30T12:57:43.561Z,49.40
2019-01-30T13:00:15.722Z,48.66
2019-01-30T13:02:42.816Z,49.27
2019-01-30T13:05:10.005Z,48.95
2019-01-30T13:07:37.085Z,49.14
2019-01-30T13:10:05.531Z,49.37
2019-01-30T13:12:32.598Z,49.12
2019-01-30T13:14:59.657Z,49.02
2019-01-30T13:17:26.718Z,49.17
2019-01-30T13:19:53.774Z,49.77
2019-01-30T13:22:20.852Z,49.36
2019-01-30T13:24:47.896Z,49.31
2019-01-30T13:27:14.975Z,49.17
2019-01-30T13:29:42.066Z,49.09
2019-01-30T13:32:09.136Z,49.36
2019-01-30T13:34:36.234Z,49.51
2019-01-30T13:37:03.281Z,49.54
2019-01-30T13:39:30.470Z,49.48
2019-01-30T13:41:57.514Z,49.34
2019-01-30T13:44:24.568Z,49.50
2019-01-30T13:46:51.615Z,49.50
2019-01-30T13:49:18.848Z,49.46
2019-01-30T13:51:45.923Z,49.48
2019-01-30T13:54:12.963Z,49.26
2019-01-30T13:56:40.038Z,49.26
2019-01-30T13:59:07.107Z,49.48
2019-01-30T14:01:34.181Z,49.74
2019-01-30T14:04:01.472Z,49.87
2019-01-30T14:06:28.520Z,49.13
2019-01-30T14:08:55.582Z,49.06
2019-01-30T14:11:22.776Z,49.07
2019-01-30T14:13:49.806Z,49.25
2019-01-30T14:16:16.894Z,49.61
2019-01-30T14:18:43.951Z,49.78
2019-01-30T14:21:10.995Z,49.83
2019-01-30T14:23:38.092Z,49.80
2019-01-30T14:26:05.197Z,50.21
2019-01-30T14:28:32.465Z,49.86
2019-01-30T14:30:59.494Z,50.61
2019-01-30T14:33:26.647Z,51.21
2019-01-30T14:35:53.771Z,51.35
2019-01-30T14:38:20.849Z,51.21
2019-01-30T14:40:47.984Z,51.51
2019-01-30T14:43:17.472Z,51.44
2019-01-30T14:45:44.548Z,51.54
2019-01-30T14:48:11.662Z,51.92
2019-01-30T14:50:38.727Z,52.71
2019-01-30T14:53:05.820Z,53.40
2019-01-30T14:55:32.919Z,53.73
2019-01-30T14:58:00.065Z,54.08
2019-01-30T15:01:11.790Z,54.16
2019-01-30T15:03:38.915Z,53.76
2019-01-30T15:06:05.964Z,53.44
2019-01-30T15:08:33.073Z,53.38
2019-01-30T15:11:00.237Z,53.48
2019-01-30T15:13:27.300Z,53.88
2019-01-30T15:15:54.441Z,54.24
2019-01-30T15:18:21.479Z,54.10
2019-01-30T15:20:48.656Z,54.26
2019-01-30T15:23:15.671Z,54.46
2019-01-30T15:25:42.774Z,54.55
2019-01-30T15:28:10.638Z,54.80
2019-01-30T15:30:41.240Z,55.15
2019-01-30T15:33:09.633Z,55.26
2019-01-30T15:35:36.821Z,55.22
2019-01-30T15:38:06.895Z,54.97
2019-01-30T15:40:34.081Z,55.22
2019-01-30T15:43:01.429Z,55.49
2019-01-30T15:45:28.730Z,56.10
2019-01-30T15:47:55.793Z,56.15
2019-01-30T15:50:24.814Z,56.26
2019-01-30T15:52:52.940Z,56.40
2019-01-30T15:55:20.011Z,59.08
2019-01-30T15:57:58.529Z,60.62
2019-01-30T16:00:47.040Z,59.31
2019-01-30T16:03:14.159Z,57.05
2019-01-30T16:05:45.009Z,56.63
2019-01-30T16:08:20.265Z,56.53
2019-01-30T16:10:47.444Z,57.02
2019-01-30T16:13:16.162Z,57.27
2019-01-30T16:15:49.228Z,57.28
2019-01-30T16:18:17.680Z,57.41
2019-01-30T16:20:46.828Z,57.61
2019-01-30T16:23:15.405Z,58.05
2019-01-30T16:28:50.193Z,58.67
2019-01-30T16:31:17.318Z,59.06
2019-01-30T16:36:25.310Z,59.33
2019-01-30T16:38:52.472Z,59.36
2019-01-30T16:41:42.758Z,59.69
2019-01-30T16:44:10.008Z,59.74
2019-01-30T16:46:37.163Z,60.00
2019-01-30T16:49:04.389Z,60.33
2019-01-30T16:51:31.908Z,60.58
2019-01-30T16:53:59.079Z,60.78
2019-01-30T16:56:26.247Z,61.17
2019-01-30T16:58:53.577Z,61.25
2019-01-30T17:01:20.731Z,61.25
2019-01-30T17:03:48.802Z,61.55
2019-01-30T17:06:16.874Z,61.66
2019-01-30T17:08:43.963Z,61.69
2019-01-30T17:11:11.147Z,61.95
2019-01-30T17:13:39.383Z,62.00
2019-01-30T17:16:06.531Z,62.04
2019-01-30T17:18:34.316Z,62.32
2019-01-30T17:21:01.823Z,62.36
2019-01-30T17:23:29.176Z,62.39
2019-01-30T17:25:57.874Z,62.46
2019-01-30T17:28:25.107Z,62.56
2019-01-30T17:31:23.725Z,62.87
2019-01-30T17:33:51.129Z,62.93
2019-01-30T17:36:19.005Z,63.08
2019-01-30T17:38:46.188Z,63.34
2019-01-30T17:41:13.384Z,63.53
2019-01-30T17:43:40.595Z,63.65
2019-01-30T17:46:07.947Z,63.83
2019-01-30T17:48:35.346Z,63.82
2019-01-30T17:51:02.814Z,64.02
2019-01-30T17:53:31.117Z,64.07
2019-01-30T17:55:58.463Z,64.20
2019-01-30T17:58:25.651Z,64.51
2019-01-30T18:00:57.225Z,64.77
2019-01-30T18:03:24.404Z,64.81
2019-01-30T18:05:51.901Z,64.90
2019-01-30T18:08:21.854Z,65.16
2019-01-30T18:10:49.061Z,65.20
2019-01-30T18:13:16.267Z,65.35
2019-01-30T18:15:43.877Z,67.11
2019-01-30T18:18:12.184Z,67.37
2019-01-30T18:20:39.644Z,65.94
2019-01-30T18:23:08.418Z,65.28
2019-01-30T18:25:36.095Z,65.21
2019-01-30T18:28:04.545Z,65.19
2019-01-30T18:30:32.949Z,65.32
2019-01-30T18:33:01.057Z,65.55
2019-01-30T18:35:28.428Z,65.72
2019-01-30T18:37:57.350Z,65.85
2019-01-30T18:40:25.073Z,66.01
2019-01-30T18:42:53.283Z,66.09
2019-01-30T18:45:23.003Z,65.99
2019-01-30T18:47:52.532Z,65.91
2019-01-30T18:50:25.766Z,66.08
2019-01-30T18:52:58.913Z,65.98
2019-01-30T18:55:26.547Z,66.04
2019-01-30T19:01:07.967Z,66.13
2019-01-30T19:03:35.166Z,66.08
2019-01-30T19:06:02.771Z,65.86
2019-01-30T19:08:31.407Z,65.79
2019-01-30T19:11:04.661Z,65.83
2019-01-30T19:13:31.929Z,65.87
2019-01-30T19:15:59.182Z,66.08
2019-01-30T19:18:30.973Z,66.20
2019-01-30T19:20:58.991Z,66.41
2019-01-30T19:23:26.198Z,66.48
2019-01-30T19:26:12.872Z,66.38
2019-01-30T19:28:40.976Z,66.32
2019-01-30T19:31:08.344Z,66.30
2019-01-30T19:33:35.642Z,66.52
2019-01-30T19:36:36.645Z,66.52
2019-01-30T19:42:49.544Z,66.33
2019-01-30T19:45:18.483Z,66.55
2019-01-30T19:47:46.632Z,66.68
2019-01-30T19:50:16.408Z,66.71
2019-01-30T19:52:46.988Z,66.83
2019-01-30T19:55:15.301Z,66.87
2019-01-30T19:58:02.325Z,66.80
2019-01-30T20:00:34.989Z,66.66
2019-01-30T20:03:06.966Z,66.70
2019-01-30T20:05:34.843Z,66.64
2019-01-30T20:08:03.269Z,66.62
2019-01-30T20:10:32.579Z,66.67
2019-01-30T20:13:00.047Z,66.74
2019-01-30T20:15:31.311Z,66.77
2019-01-30T20:18:03.008Z,66.77
2019-01-30T20:20:30.813Z,66.77
2019-01-30T20:23:00.003Z,66.85
2019-01-30T20:25:30.221Z,66.52
2019-01-30T20:27:57.546Z,66.48
2019-01-30T20:30:25.214Z,66.34
2019-01-30T20:32:52.622Z,65.99
2019-01-30T20:35:20.156Z,65.78
2019-01-30T20:37:47.444Z,65.62
2019-01-30T20:40:17.154Z,65.54
2019-01-30T20:42:44.897Z,65.44
2019-01-30T20:45:12.236Z,65.40
2019-01-30T20:47:39.394Z,65.47
2019-01-30T20:50:09.389Z,65.38
2019-01-30T20:52:36.861Z,65.25
2019-01-30T20:55:25.878Z,65.29
2019-01-30T20:57:55.380Z,65.16
2019-01-30T21:00:24.989Z,65.29
2019-01-30T21:02:59.009Z,65.53
2019-01-30T21:05:26.208Z,65.70
2019-01-30T21:07:55.654Z,65.55
2019-01-30T21:10:25.704Z,65.30
2019-01-30T21:12:53.312Z,65.00
2019-01-30T21:15:40.028Z,64.79
2019-01-30T21:18:07.994Z,64.60
2019-01-30T21:20:35.175Z,64.46
2019-01-30T21:23:02.663Z,64.51
2019-01-30T21:25:30.138Z,64.58
2019-01-30T21:27:57.337Z,64.63
2019-01-30T21:30:27.253Z,64.80
2019-01-30T21:32:55.713Z,64.93
2019-01-30T21:35:22.884Z,64.89
2019-01-30T21:37:50.507Z,65.11
2019-01-30T21:40:17.728Z,65.17
2019-01-30T21:42:45.534Z,65.13
2019-01-30T21:45:15.029Z,65.26
2019-01-30T21:47:42.217Z,65.38
2019-01-30T21:50:09.732Z,65.34
2019-01-30T21:52:36.937Z,65.37
2019-01-30T21:55:26.733Z,65.38
2019-01-30T21:57:53.881Z,65.55
2019-01-30T22:00:25.788Z,65.73
2019-01-30T22:02:53.427Z,65.69
2019-01-30T22:05:20.567Z,65.90
2019-01-30T22:07:47.720Z,66.04
2019-01-30T22:10:16.977Z,66.19
2019-01-30T22:12:44.080Z,66.29
2019-01-30T22:15:12.069Z,66.23
2019-01-30T22:17:39.320Z,66.07
2019-01-30T22:20:08.929Z,65.97
2019-01-30T22:22:35.993Z,65.99
2019-01-30T22:25:04.223Z,65.90
2019-01-30T22:27:31.326Z,65.98
2019-01-30T22:29:58.358Z,65.98
2019-01-30T22:32:25.406Z,66.07
2019-01-30T22:34:52.453Z,66.20
2019-01-30T22:37:19.703Z,66.27
2019-01-30T22:39:46.761Z,66.21
2019-01-30T22:42:13.838Z,66.21
2019-01-30T22:44:40.911Z,66.15
2019-01-30T22:47:09.122Z,66.08
2019-01-30T22:49:36.156Z,66.16
2019-01-30T22:52:03.220Z,66.30
2019-01-30T22:54:30.290Z,66.05
2019-01-30T22:56:57.339Z,65.75
2019-01-30T22:59:24.475Z,65.49
2019-01-30T23:01:57.856Z,65.53
2019-01-30T23:04:55.148Z,65.45
2019-01-30T23:07:58.535Z,65.35
2019-01-30T23:11:12.056Z,65.54
2019-01-30T23:14:05.526Z,65.64
2019-01-30T23:17:12.812Z,65.49
2019-01-30T23:20:03.093Z,65.53
2019-01-30T23:23:14.910Z,65.45
2019-01-30T23:25:50.025Z,65.40
2019-01-30T23:29:10.659Z,65.64
2019-01-30T23:32:10.057Z,65.73
2019-01-30T23:35:03.154Z,65.76
2019-01-30T23:38:04.999Z,65.59
2019-01-30T23:41:15.733Z,65.58
2019-01-30T23:43:58.460Z,65.75
2019-01-30T23:46:39.461Z,65.75
2019-01-30T23:49:54.831Z,65.98
2019-01-30T23:52:33.347Z,66.11
2019-01-30T23:55:54.088Z,65.91
2019-01-30T23:59:14.030Z,65.96
